Atalissa, IA

8:36 AM CST on January 25, 2015 (GMT -0600)
Muscatine Municipal | Change Station
CLOSE
Current Station
Airport
Location: Muscatine,
Elevation: 548 ft
Nearby Weather Stations
Active Advisory: Special Statement

Elev 548 ft 41.37 °N, 91.14 °W | Updated 21 minutes ago

Snow
Snow
34 °F
Feels Like 24 °F
N
15
Wind Variable Wind from NE

Today
High -- | Low -- °F
--% Chance of Precip.
Yesterday
High -- | Low -- °F
Precip. -- in
7:22 AM 5:11 PM
Waxing Crescent, 32% visible
Pressure 29.69 in
Visibility 0.8 miles
Clouds Overcast 500 ft
Windchill 24 °F
Dew Point 32 °F
Humidity 93%
Rainfall 0.10 in
Snow Depth Not available.
UV 0 out of 12
Pollen .10 out of 12
Air Quality Not available.
Flu Activity Not available.
METAR KMUT 251415Z AUTO 05013KT 3/4SM -SN OVC005 01/00 A2969 RMK AO2

More Conditions Fewer Conditions

Pressure 29.69 in
Visibility 0.8 miles
Clouds Overcast 500 ft
Windchill 24 °F
Dew Point 32 °F
Humidity 93%
Rainfall 0.10 in
Snow Depth Not available.
UV 0 out of 12
Pollen .10 out of 12
Air Quality Not available.
Flu Activity Not available.
METAR KMUT 251415Z AUTO 05013KT 3/4SM -SN OVC005 01/00 A2969 RMK AO2

More Conditions Fewer Conditions

10-Day Weather Forecast

Almanac

Astronomy

Jan. 25, 2015 Rise Set
Actual Time
Civil Twilight
Nautical Twilight
Astronomical Twilight
Moon
Length of Visible Light
Length of Day
Tomorrow will be .
, % of the Moon is Illuminated

Today's Extremes

State Highs State Lows

Community

WunderPhotos

Upload Photos

1,789,898 photos uploaded!

WunderBlogs® & News

Nearby

Air Quality

  Air Quality AQ Index Pollutant
Not available.

Snow Depth

Station Depth Elevation

Earthquake Activity

City Distance Mag. Time & Date
Minimum magnitude displayed is 2.5.

Coastal Water Temperatures

Place Temperature

Nearby Weather Stations